Time;durP1;ratioP1;P1;durP2;ratioP2;P2;SDS_P1;SDS_P2;PMS_P1;PMS_P2;Temp;Humidity;BMP_temperature;BMP_pressure;BME280_temperature;BME280_humidity;BME280_pressure;Samples;Min_cycle;Max_cycle;Signal;HPM_P1;HPM_P2
2021/12/06 00:01:07;;;;;;;39.17;15.98;;;;;;;2.36;100.00;101315.34;5085566;27;20067;-69
2021/12/06 00:03:42;;;;;;;42.97;15.63;;;;;;;2.38;100.00;101332.03;5087191;27;20476;-69
2021/12/06 00:06:13;;;;;;;35.60;15.52;;;;;;;2.38;100.00;101324.13;5085292;27;20106;-69
2021/12/06 00:08:41;;;;;;;42.78;18.33;;;;;;;2.40;100.00;101331.19;5086008;27;20467;-69
2021/12/06 00:11:10;;;;;;;41.85;18.65;;;;;;;2.39;100.00;101326.78;5085026;27;20483;-69
2021/12/06 00:13:41;;;;;;;44.10;18.00;;;;;;;2.40;100.00;101331.19;5087449;27;20072;-69
2021/12/06 00:16:14;;;;;;;45.80;19.13;;;;;;;2.43;100.00;101335.59;5084601;27;20463;-69
2021/12/06 00:18:43;;;;;;;;;;;;;;;2.43;100.00;101336.50;5086449;28;20292;-69
2021/12/06 00:21:18;;;;;;;51.10;20.83;;;;;;;2.42;100.00;101339.97;5084657;28;19969;-69
2021/12/06 00:23:53;;;;;;;42.97;17.63;;;;;;;2.45;100.00;101332.97;5088643;27;20115;-70
2021/12/06 00:26:21;;;;;;;43.45;17.00;;;;;;;2.48;100.00;101335.63;5083691;28;20128;-69
2021/12/06 00:28:56;;;;;;;49.05;19.50;;;;;;;2.49;100.00;101340.06;5086337;27;20108;-69
2021/12/06 00:31:27;;;;;;;49.60;18.95;;;;;;;2.49;100.00;101340.06;5086065;28;20063;-68
2021/12/06 00:34:00;;;;;;;47.33;20.33;;;;;;;2.55;100.00;101340.09;5087285;27;20058;-68
2021/12/06 00:36:32;;;;;;;47.33;19.02;;;;;;;2.55;100.00;101340.09;5085628;28;20040;-69
2021/12/06 00:39:01;;;;;;;48.38;19.83;;;;;;;2.53;100.00;101347.97;5083951;27;20046;-69
2021/12/06 00:41:29;;;;;;;48.60;20.08;;;;;;;2.56;100.00;101348.00;5088625;28;20224;-69
2021/12/06 00:43:59;;;;;;;41.50;18.00;;;;;;;2.57;100.00;101346.25;5086289;27;20342;-69
2021/12/06 00:46:30;;;;;;;48.67;19.83;;;;;;;2.54;100.00;101352.38;5088586;28;20170;-69
2021/12/06 00:48:58;;;;;;;43.88;19.70;;;;;;;2.53;100.00;101350.59;5087235;28;20553;-69
2021/12/06 00:51:27;;;;;;;49.17;19.00;;;;;;;2.55;100.00;101361.16;5086761;28;20135;-69
2021/12/06 00:53:56;;;;;;;55.63;19.88;;;;;;;2.54;100.00;101365.56;5083888;28;20075;-69
2021/12/06 00:56:24;;;;;;;42.70;17.67;;;;;;;2.52;100.00;101362.03;5086398;28;20055;-69
2021/12/06 00:58:52;;;;;;;46.97;20.40;;;;;;;2.50;100.00;101369.00;5083371;28;20618;-69
2021/12/06 01:01:20;;;;;;;46.95;19.60;;;;;;;2.49;100.00;101366.41;5087896;28;20562;-69
2021/12/06 01:03:49;;;;;;;46.92;19.10;;;;;;;2.50;100.00;101379.56;5087068;28;20051;-69
2021/12/06 01:06:17;;;;;;;53.60;20.33;;;;;;;2.53;100.00;101376.94;5087834;28;20646;-69
2021/12/06 01:08:45;;;;;;;50.08;19.63;;;;;;;2.53;100.00;101387.50;5085485;28;20393;-70
2021/12/06 01:11:14;;;;;;;51.35;20.77;;;;;;;2.57;100.00;101388.41;5088295;28;20122;-70
2021/12/06 01:13:42;;;;;;;49.30;20.05;;;;;;;2.56;100.00;101397.19;5085329;28;20040;-70
2021/12/06 01:16:10;;;;;;;53.20;21.35;;;;;;;2.60;100.00;101404.25;5090276;28;20055;-70
2021/12/06 01:18:38;;;;;;;48.17;18.13;;;;;;;2.63;100.00;101408.69;5086256;27;20483;-71
2021/12/06 01:21:15;;;;;;;49.53;19.30;;;;;;;2.64;100.00;101408.69;5096333;27;20113;-70
2021/12/06 01:23:52;;;;;;;45.85;18.02;;;;;;;2.66;100.00;101413.97;5090350;27;20087;-70
2021/12/06 01:29:35;;;;;;;47.75;19.45;;;;;;;2.68;100.00;101412.25;5090918;27;20058;-70
2021/12/06 01:32:11;;;;;;;46.65;19.90;;;;;;;2.69;100.00;101416.63;5088770;27;20115;-70
2021/12/06 01:40:11;;;;;;;47.40;19.95;;;;;;;2.70;100.00;101410.50;5088293;27;20051;-70
2021/12/06 01:42:40;;;;;;;50.00;20.10;;;;;;;2.70;100.00;101418.41;5093017;27;20055;-71
2021/12/06 01:45:09;;;;;;;44.08;18.83;;;;;;;2.67;100.00;101426.28;5089272;27;20057;-70
2021/12/06 01:47:39;;;;;;;56.67;21.23;;;;;;;2.64;100.00;101427.13;5086989;27;20075;-70
2021/12/06 01:50:11;;;;;;;51.72;19.98;;;;;;;2.67;100.00;101429.78;5095965;27;20078;-70
2021/12/06 01:52:42;;;;;;;58.38;21.42;;;;;;;2.65;100.00;101428.88;5085100;28;20075;-70
2021/12/06 01:55:15;;;;;;;50.67;21.08;;;;;;;2.63;100.00;101425.38;5092677;27;20229;-70
2021/12/06 01:57:45;;;;;;;57.58;24.83;;;;;;;2.63;100.00;101421.84;5086677;27;20055;-70
2021/12/06 02:00:18;;;;;;;53.10;21.17;;;;;;;2.64;100.00;101429.78;5091949;27;20271;-71
2021/12/06 02:02:46;;;;;;;53.00;21.23;;;;;;;2.63;100.00;101424.50;5093134;27;20051;-71
2021/12/06 02:05:15;;;;;;;50.88;21.27;;;;;;;2.61;100.00;101422.72;5087015;27;20101;-71
2021/12/06 02:07:44;;;;;;;58.95;22.08;;;;;;;2.58;100.00;101427.94;5089950;27;20088;-71
2021/12/06 02:10:12;;;;;;;51.58;20.70;;;;;;;2.60;100.00;101422.69;5086572;27;20126;-71
2021/12/06 02:12:39;;;;;;;54.47;21.33;;;;;;;2.57;100.00;101414.75;5095699;27;20142;-71
2021/12/06 02:15:23;;;;;;;51.72;21.70;;;;;;;2.57;100.00;101427.91;5083468;27;20178;-71
2021/12/06 02:17:59;;;;;;;47.85;20.33;;;;;;;2.54;100.00;101415.63;5090517;27;20055;-71
2021/12/06 02:20:29;;;;;;;50.40;20.10;;;;;;;2.56;100.00;101424.41;5088993;27;20299;-71
2021/12/06 02:22:59;;;;;;;51.95;21.67;;;;;;;2.56;100.00;101413.00;5089434;27;20325;-71
2021/12/06 02:25:27;;;;;;;51.75;21.52;;;;;;;2.56;100.00;101415.63;5078212;28;20231;-71
2021/12/06 02:27:55;;;;;;;60.13;22.23;;;;;;;2.54;100.00;101414.75;5069402;28;20054;-71
2021/12/06 02:30:23;;;;;;;47.75;20.60;;;;;;;2.50;100.00;101412.94;5067572;28;20162;-71
2021/12/06 02:32:52;;;;;;;48.13;19.15;;;;;;;2.47;100.00;101413.78;5072856;28;20060;-69
2021/12/06 02:35:23;;;;;;;44.47;19.85;;;;;;;2.44;100.00;101413.75;5070107;28;20048;-71
2021/12/06 02:37:53;;;;;;;52.60;18.73;;;;;;;2.40;100.00;101410.22;5074003;28;20712;-71
2021/12/06 02:40:26;;;;;;;47.97;19.08;;;;;;;2.37;100.00;101418.06;5065596;28;20044;-71
2021/12/06 02:42:56;;;;;;;49.28;19.67;;;;;;;2.37;100.00;101418.06;5069590;28;20050;-71
2021/12/06 02:45:26;;;;;;;53.10;20.27;;;;;;;2.34;100.00;101414.53;5070530;28;20048;-71
2021/12/06 02:47:54;;;;;;;53.15;21.67;;;;;;;2.28;100.00;101417.06;5066428;28;20059;-71
2021/12/06 02:50:25;;;;;;;49.08;21.95;;;;;;;2.22;100.00;101418.78;5064757;28;20172;-71
2021/12/06 02:52:54;;;;;;;55.13;21.38;;;;;;;2.17;100.00;101412.56;5070544;28;20048;-71
2021/12/06 02:55:31;;;;;;;49.72;19.23;;;;;;;2.14;100.00;101414.28;5068308;28;20048;-70
2021/12/06 02:58:02;;;;;;;54.88;21.92;;;;;;;2.09;100.00;101419.50;5068371;28;20057;-70
2021/12/06 03:00:33;;;;;;;55.33;20.73;;;;;;;2.05;100.00;101428.22;5069508;28;20483;-70
2021/12/06 03:03:01;;;;;;;45.88;18.52;;;;;;;2.00;100.00;101407.09;5065804;28;20510;-71
2021/12/06 03:05:29;;;;;;;44.97;19.10;;;;;;;1.97;100.00;101409.69;5070390;28;20573;-70
2021/12/06 03:08:00;;;;;;;51.67;19.73;;;;;;;1.95;100.00;101411.44;5067070;28;20269;-70
2021/12/06 03:10:29;;;;;;;49.03;19.02;;;;;;;1.96;100.00;101415.84;5068294;28;20109;-69
2021/12/06 03:12:58;;;;;;;44.22;19.65;;;;;;;1.95;100.00;101413.19;5060275;28;20271;-69
2021/12/06 03:15:26;;;;;;;48.92;20.77;;;;;;;1.88;100.00;101429.78;5068016;28;20044;-69
2021/12/06 03:17:54;;;;;;;56.05;22.30;;;;;;;1.83;100.00;101432.34;5067420;28;20588;-71
2021/12/06 03:20:22;;;;;;;53.75;22.25;;;;;;;1.82;100.00;101433.19;5068434;28;20647;-71
2021/12/06 03:22:50;;;;;;;49.53;19.90;;;;;;;1.79;100.00;101436.69;5067785;28;20145;-71
2021/12/06 03:25:19;;;;;;;49.17;20.35;;;;;;;1.79;100.00;101438.44;5082347;27;20484;-71
2021/12/06 03:27:48;;;;;;;46.50;21.02;;;;;;;1.80;100.00;101441.06;5086715;27;20590;-71
2021/12/06 03:30:17;;;;;;;48.05;20.38;;;;;;;1.79;100.00;101433.19;5087605;27;20056;-71
2021/12/06 03:32:45;;;;;;;50.25;20.23;;;;;;;1.74;100.00;101434.81;5088689;27;20055;-71
2021/12/06 03:35:13;;;;;;;53.53;20.52;;;;;;;1.74;100.00;101433.09;5085391;27;20055;-71
2021/12/06 03:37:42;;;;;;;49.13;20.48;;;;;;;1.70;100.00;101433.91;5092376;27;20142;-71
2021/12/06 03:40:11;;;;;;;48.40;20.38;;;;;;;1.64;100.00;101432.09;5084761;27;20093;-71
2021/12/06 03:42:39;;;;;;;47.25;19.83;;;;;;;1.60;100.00;101432.91;5092665;27;20120;-71
2021/12/06 03:45:10;;;;;;;57.22;20.42;;;;;;;1.57;100.00;101434.63;5091655;27;20048;-71
2021/12/06 03:47:38;;;;;;;48.95;21.08;;;;;;;1.51;100.00;101439.78;5090678;27;20055;-71
2021/12/06 03:50:10;;;;;;;45.50;18.17;;;;;;;1.47;100.00;101437.09;5089277;27;20055;-71
2021/12/06 03:52:38;;;;;;;48.40;20.17;;;;;;;1.48;100.00;101440.59;5092422;27;20134;-71
2021/12/06 03:55:08;;;;;;;47.55;19.88;;;;;;;1.41;100.00;101439.63;5084535;27;20472;-71
2021/12/06 03:57:36;;;;;;;47.78;19.70;;;;;;;1.35;100.00;101452.69;5092881;27;20084;-71
2021/12/06 04:00:07;;;;;;;41.45;17.48;;;;;;;1.31;100.00;101456.13;5089032;27;20138;-71
2021/12/06 04:02:37;;;;;;;41.80;17.85;;;;;;;1.29;100.00;101455.22;5090110;27;20043;-72
2021/12/06 04:05:07;;;;;;;41.10;17.83;;;;;;;1.25;100.00;101462.19;5083550;27;20036;-69
2021/12/06 04:07:35;;;;;;;38.78;17.50;;;;;;;1.21;100.00;101457.75;5090649;28;20048;-71
2021/12/06 04:10:05;;;;;;;45.33;18.40;;;;;;;1.18;100.00;101457.69;5088021;28;20047;-71
2021/12/06 04:12:33;;;;;;;43.63;17.40;;;;;;;1.17;100.00;101461.16;5089560;27;20190;-72
2021/12/06 04:15:01;;;;;;;42.42;18.25;;;;;;;1.18;100.00;101462.06;5082871;28;20050;-71
2021/12/06 04:17:28;;;;;;;45.65;18.85;;;;;;;1.13;100.00;101461.97;5091093;27;20044;-70
2021/12/06 04:19:58;;;;;;;43.08;18.42;;;;;;;1.10;100.00;101461.94;5085299;28;20344;-72
2021/12/06 04:22:26;;;;;;;46.67;19.23;;;;;;;1.06;100.00;101457.50;5088563;27;20143;-71
2021/12/06 04:24:54;;;;;;;45.03;19.10;;;;;;;1.05;100.00;101474.97;5085604;28;20124;-71
2021/12/06 04:27:25;;;;;;;46.33;18.95;;;;;;;1.05;100.00;101467.09;5090994;28;20048;-71
2021/12/06 04:29:53;;;;;;;44.70;19.85;;;;;;;1.04;100.00;101472.31;5083682;27;20079;-71
2021/12/06 04:32:22;;;;;;;45.80;18.35;;;;;;;1.00;100.00;101473.16;5090283;28;20063;-71
2021/12/06 04:34:50;;;;;;;46.88;19.83;;;;;;;0.96;100.00;101474.84;5090887;27;20071;-70
2021/12/06 04:37:19;;;;;;;39.30;17.33;;;;;;;0.93;100.00;101475.66;5087323;28;20060;-71
2021/12/06 04:39:48;;;;;;;50.88;21.10;;;;;;;0.91;100.00;101474.75;5089877;28;20050;-71
2021/12/06 04:42:18;;;;;;;53.65;21.33;;;;;;;0.93;100.00;101472.16;5084304;27;20079;-71
2021/12/06 04:44:46;;;;;;;45.00;21.83;;;;;;;0.88;100.00;101474.69;5088383;28;20039;-71
2021/12/06 04:47:14;;;;;;;48.38;19.95;;;;;;;0.85;100.00;101460.63;5085603;28;20043;-71
2021/12/06 04:49:42;;;;;;;51.80;19.08;;;;;;;0.82;100.00;101456.22;5087513;28;20083;-71
2021/12/06 04:52:12;;;;;;;40.55;17.92;;;;;;;0.76;100.00;101449.97;5085238;28;20056;-71
2021/12/06 04:54:44;;;;;;;55.90;21.20;;;;;;;0.70;100.00;101450.75;5086996;28;20194;-71
2021/12/06 04:57:15;;;;;;;51.55;20.80;;;;;;;0.69;100.00;101451.59;5085477;28;20076;-71
2021/12/06 04:59:49;;;;;;;51.45;19.80;;;;;;;0.63;100.00;101449.75;5088671;28;20052;-71
2021/12/06 05:02:21;;;;;;;41.30;18.60;;;;;;;0.57;100.00;101449.63;5084760;28;20079;-71
2021/12/06 05:04:56;;;;;;;48.72;18.98;;;;;;;0.60;100.00;101451.44;5089173;28;20051;-69
2021/12/06 05:07:30;;;;;;;49.97;20.15;;;;;;;0.52;100.00;101454.78;5087033;28;20055;-69
2021/12/06 05:09:59;;;;;;;46.67;18.42;;;;;;;0.48;100.00;101457.34;5088198;28;20044;-68
2021/12/06 05:12:30;;;;;;;47.67;19.75;;;;;;;0.44;100.00;101458.09;5090248;28;20508;-68
2021/12/06 05:14:59;;;;;;;47.97;17.73;;;;;;;0.48;100.00;101459.97;5089689;28;20137;-68
2021/12/06 05:17:28;;;;;;;49.88;19.15;;;;;;;0.50;100.00;101469.63;5084731;28;20048;-68
2021/12/06 05:19:56;;;;;;;50.60;19.15;;;;;;;0.61;100.00;101459.31;5089905;28;20734;-68
2021/12/06 05:22:25;;;;;;;52.58;20.75;;;;;;;0.72;100.00;101464.78;5086714;28;20129;-68
2021/12/06 05:24:53;;;;;;;48.05;19.83;;;;;;;0.96;100.00;101463.44;5084617;28;20132;-68
2021/12/06 05:27:27;;;;;;;56.72;20.85;;;;;;;1.16;100.00;101469.94;5088721;28;20043;-69
2021/12/06 05:30:02;;;;;;;61.60;22.85;;;;;;;1.36;100.00;101471.97;5085570;28;20138;-69
2021/12/06 05:32:33;;;;;;;59.35;23.50;;;;;;;1.40;100.00;101484.34;5087135;28;20055;-70
2021/12/06 05:35:07;;;;;;;67.40;26.70;;;;;;;1.48;100.00;101486.22;5084850;28;20084;-69
2021/12/06 05:37:37;;;;;;;65.10;23.88;;;;;;;1.48;100.00;101499.38;5085329;28;20434;-70
2021/12/06 05:40:09;;;;;;;77.88;25.27;;;;;;;1.50;100.00;101499.41;5086695;28;20044;-69
2021/12/06 05:42:39;;;;;;;76.55;28.65;;;;;;;1.53;100.00;101495.91;5089944;28;20440;-70
2021/12/06 05:45:09;;;;;;;70.63;23.95;;;;;;;1.57;100.00;101489.88;5084270;28;20670;-69
2021/12/06 05:47:37;;;;;;;85.38;27.35;;;;;;;1.55;100.00;101491.56;5088491;28;20131;-70
2021/12/06 05:50:07;;;;;;;71.68;24.83;;;;;;;1.60;100.00;101484.63;5085895;28;20055;-70
2021/12/06 05:52:35;;;;;;;72.43;28.90;;;;;;;1.62;100.00;101475.91;5088246;28;20043;-70
2021/12/06 05:55:05;;;;;;;69.72;26.83;;;;;;;1.72;100.00;101478.66;5090040;28;20058;-70
2021/12/06 05:57:35;;;;;;;74.65;27.73;;;;;;;1.66;100.00;101480.34;5086995;28;20044;-69
2021/12/06 06:00:06;;;;;;;74.30;25.67;;;;;;;1.69;100.00;101479.50;5090189;28;20047;-70
2021/12/06 06:02:34;;;;;;;76.80;26.95;;;;;;;1.76;100.00;101475.22;5088060;28;20048;-70
2021/12/06 06:05:03;;;;;;;77.85;26.75;;;;;;;1.76;100.00;101469.97;5089501;27;20048;-70
2021/12/06 06:07:32;;;;;;;72.63;28.10;;;;;;;1.79;100.00;101472.66;5092177;27;20059;-70
2021/12/06 06:10:00;;;;;;;74.68;26.70;;;;;;;1.77;100.00;101476.97;5088394;28;20486;-70
2021/12/06 06:12:29;;;;;;;71.57;26.77;;;;;;;1.80;100.00;101474.41;5091782;27;20047;-70
2021/12/06 06:14:57;;;;;;;76.03;26.23;;;;;;;1.72;100.00;101476.94;5092222;27;21348;-70
2021/12/06 06:17:27;;;;;;;79.45;27.80;;;;;;;1.71;100.00;101477.78;5093647;27;20039;-70
2021/12/06 06:19:58;;;;;;;66.72;24.48;;;;;;;1.69;100.00;101484.78;5087088;27;20051;-70
2021/12/06 06:22:25;;;;;;;119.30;27.80;;;;;;;1.64;100.00;101484.69;5092333;27;20443;-70
2021/12/06 06:24:53;;;;;;;90.95;26.73;;;;;;;1.69;100.00;101487.41;5086964;27;20112;-70
2021/12/06 06:27:21;;;;;;;95.18;27.23;;;;;;;1.66;100.00;101490.88;5092887;27;20490;-70
2021/12/06 06:29:49;;;;;;;115.22;28.70;;;;;;;1.62;100.00;101494.31;5087699;27;20491;-70
2021/12/06 06:32:17;;;;;;;114.68;31.13;;;;;;;1.58;100.00;101497.75;5091880;27;20123;-70
2021/12/06 06:34:46;;;;;;;81.85;29.38;;;;;;;1.59;100.00;101509.19;5088350;27;20507;-70
2021/12/06 06:37:14;;;;;;;85.78;26.30;;;;;;;1.62;100.00;101514.50;5090770;27;20206;-71
2021/12/06 06:39:42;;;;;;;103.28;31.10;;;;;;;1.59;100.00;101515.31;5090292;27;20093;-70
2021/12/06 06:42:10;;;;;;;105.85;30.30;;;;;;;1.62;100.00;101510.09;5088140;27;20055;-70
2021/12/06 06:44:38;;;;;;;82.03;28.15;;;;;;;1.66;100.00;101511.03;5090987;27;20190;-68
2021/12/06 06:47:06;;;;;;;88.57;27.77;;;;;;;1.66;100.00;101511.91;5087313;27;20054;-69
2021/12/06 06:49:34;;;;;;;90.95;32.22;;;;;;;1.73;100.00;101509.38;5095460;27;20047;-68
2021/12/06 06:52:04;;;;;;;78.22;29.08;;;;;;;1.76;100.00;101517.34;5088181;27;20135;-68
2021/12/06 06:54:32;;;;;;;84.47;29.08;;;;;;;1.77;100.00;101520.00;5086072;27;20067;-69
2021/12/06 06:57:00;;;;;;;84.53;27.90;;;;;;;1.79;100.00;101520.00;5090917;27;20439;-68
2021/12/06 06:59:28;;;;;;;79.65;26.98;;;;;;;1.83;100.00;101514.78;5088806;27;20405;-69
2021/12/06 07:01:57;;;;;;;86.20;30.00;;;;;;;1.82;100.00;101509.50;5086254;27;20135;-68
2021/12/06 07:04:25;;;;;;;75.78;31.50;;;;;;;1.80;100.00;101509.47;5091233;27;20150;-68
2021/12/06 07:06:53;;;;;;;78.75;29.63;;;;;;;1.82;100.00;101509.50;5088373;27;20169;-69
2021/12/06 07:09:22;;;;;;;85.20;30.08;;;;;;;1.82;100.00;101507.78;5088443;28;20538;-69
2021/12/06 07:11:51;;;;;;;79.47;29.95;;;;;;;1.83;100.00;101501.63;5086173;27;20044;-68
2021/12/06 07:14:19;;;;;;;82.95;31.08;;;;;;;1.87;100.00;101494.66;5090798;27;20047;-69
2021/12/06 07:16:48;;;;;;;103.07;36.15;;;;;;;1.83;100.00;101485.84;5084517;27;20198;-69
2021/12/06 07:19:17;;;;;;;95.75;31.05;;;;;;;1.86;100.00;101487.66;5091230;27;20048;-69
2021/12/06 07:21:56;;;;;;;99.80;34.67;;;;;;;1.84;100.00;101485.00;5089305;27;20344;-70
2021/12/06 07:24:26;;;;;;;91.07;32.47;;;;;;;1.87;100.00;101484.13;5085245;27;20554;-69
2021/12/06 07:26:55;;;;;;;95.82;32.60;;;;;;;1.88;100.00;101485.03;5090020;27;20051;-69
2021/12/06 07:29:23;;;;;;;95.15;33.95;;;;;;;1.89;100.00;101479.81;5086896;27;20183;-70
2021/12/06 07:31:52;;;;;;;89.50;33.17;;;;;;;1.82;100.00;101470.94;5090000;28;20071;-69
2021/12/06 07:34:20;;;;;;;89.13;31.27;;;;;;;1.79;100.00;101480.53;5085523;27;20052;-69
2021/12/06 07:36:48;;;;;;;99.68;32.33;;;;;;;1.83;100.00;101477.94;5088504;27;20331;-69
2021/12/06 07:39:16;;;;;;;85.60;30.23;;;;;;;1.80;100.00;101479.66;5086375;27;20751;-69
2021/12/06 07:41:48;;;;;;;96.65;31.80;;;;;;;1.74;100.00;101480.47;5088981;27;20134;-68
2021/12/06 07:44:16;;;;;;;89.88;29.73;;;;;;;1.76;100.00;101483.13;5084639;27;20051;-68
2021/12/06 07:46:44;;;;;;;77.63;29.95;;;;;;;1.77;100.00;101488.41;5090510;27;20380;-68
2021/12/06 07:49:12;;;;;;;83.22;28.38;;;;;;;1.76;100.00;101480.50;5088278;27;20048;-68
2021/12/06 07:51:40;;;;;;;83.00;30.85;;;;;;;1.77;100.00;101488.41;5087970;27;20522;-68
2021/12/06 07:54:08;;;;;;;86.20;27.20;;;;;;;1.76;100.00;101483.13;5083118;27;20055;-68
2021/12/06 07:56:37;;;;;;;78.28;28.42;;;;;;;1.81;100.00;101484.06;5093239;28;20052;-68
2021/12/06 07:59:07;;;;;;;80.05;29.88;;;;;;;1.74;100.00;101485.72;5083624;27;20067;-68
2021/12/06 08:01:35;;;;;;;85.85;29.77;;;;;;;1.70;100.00;101488.28;5089312;27;20653;-69
2021/12/06 08:04:04;;;;;;;87.10;28.98;;;;;;;1.74;100.00;101488.34;5086270;27;20058;-68
2021/12/06 08:06:34;;;;;;;87.90;29.23;;;;;;;1.73;100.00;101483.94;5091267;27;20048;-71
2021/12/06 08:09:03;;;;;;;88.78;29.00;;;;;;;1.71;100.00;101488.31;5083908;28;20119;-69
2021/12/06 08:11:31;;;;;;;84.78;31.50;;;;;;;1.69;100.00;101490.03;5090406;28;20055;-69
2021/12/06 08:14:00;;;;;;;84.13;30.80;;;;;;;1.71;100.00;101511.13;5087913;27;20082;-69
2021/12/06 08:16:32;;;;;;;94.43;31.63;;;;;;;1.76;100.00;101514.69;5087968;27;20047;-70
2021/12/06 08:19:00;;;;;;;79.55;29.08;;;;;;;1.80;100.00;101517.38;5083997;27;20123;-69
2021/12/06 08:21:29;;;;;;;80.00;28.88;;;;;;;1.81;100.00;101513.91;5083617;27;20083;-70
2021/12/06 08:23:59;;;;;;;76.50;27.40;;;;;;;1.85;100.00;101510.44;5090660;27;20362;-69
2021/12/06 08:26:30;;;;;;;86.80;30.60;;;;;;;1.90;100.00;101520.16;5083858;28;20043;-69
2021/12/06 08:28:59;;;;;;;81.38;30.58;;;;;;;1.91;100.00;101528.09;5090349;27;20171;-69
2021/12/06 08:31:29;;;;;;;87.82;28.73;;;;;;;1.92;100.00;101516.66;5086616;27;20302;-69
2021/12/06 08:33:57;;;;;;;79.40;31.42;;;;;;;1.97;100.00;101514.13;5085717;27;20548;-69
2021/12/06 08:36:26;;;;;;;88.72;30.70;;;;;;;2.02;100.00;101513.31;5084699;28;20164;-69
2021/12/06 08:38:54;;;;;;;84.40;30.40;;;;;;;1.99;100.00;101515.00;5087140;28;20131;-69
2021/12/06 08:41:25;;;;;;;87.78;30.75;;;;;;;2.00;100.00;101506.25;5086320;28;20052;-70
2021/12/06 08:43:55;;;;;;;93.63;34.80;;;;;;;1.97;100.00;101509.72;5092701;28;20052;-70
2021/12/06 08:46:27;;;;;;;86.55;27.95;;;;;;;2.09;100.00;101505.50;5086385;27;20300;-70
2021/12/06 08:48:57;;;;;;;91.70;33.97;;;;;;;2.02;100.00;101507.16;5089955;28;20309;-70
2021/12/06 08:51:28;;;;;;;86.15;32.35;;;;;;;2.08;100.00;101512.53;5091301;28;20181;-70
2021/12/06 08:53:58;;;;;;;97.55;33.65;;;;;;;2.08;100.00;101506.34;5090023;28;20058;-70
2021/12/06 08:56:27;;;;;;;94.97;33.65;;;;;;;2.07;100.00;101494.94;5082118;28;20135;-70
2021/12/06 08:58:57;;;;;;;97.47;32.63;;;;;;;2.09;100.00;101497.59;5090183;28;20114;-70
2021/12/06 09:01:29;;;;;;;103.65;35.67;;;;;;;2.04;100.00;101501.06;5085783;28;20534;-70
2021/12/06 09:04:19;;;;;;;111.43;36.75;;;;;;;2.09;100.00;101489.72;5089094;28;20055;-70
2021/12/06 09:06:50;;;;;;;119.20;38.33;;;;;;;2.03;100.00;101488.75;5086596;28;20127;-71
2021/12/06 09:09:18;;;;;;;115.72;35.60;;;;;;;2.05;100.00;101484.38;5087919;28;20054;-70
2021/12/06 09:11:47;;;;;;;108.68;34.53;;;;;;;2.12;100.00;101484.50;5084829;28;20082;-70
2021/12/06 09:14:16;;;;;;;113.68;38.38;;;;;;;2.08;100.00;101487.94;5090346;28;20889;-70
2021/12/06 09:16:45;;;;;;;111.75;36.92;;;;;;;2.15;100.00;101481.91;5085448;28;20109;-71
2021/12/06 09:19:15;;;;;;;103.63;35.13;;;;;;;2.19;100.00;101474.03;5090384;28;20047;-69
2021/12/06 09:21:45;;;;;;;134.25;37.47;;;;;;;2.16;100.00;101470.47;5083428;28;20120;-70
2021/12/06 09:24:16;;;;;;;118.25;35.50;;;;;;;2.21;100.00;101466.16;5085432;28;20730;-69
2021/12/06 09:26:46;;;;;;;120.00;37.25;;;;;;;2.02;100.00;101468.56;5082683;28;20094;-69
2021/12/06 09:29:14;;;;;;;114.47;34.00;;;;;;;2.09;100.00;101482.69;5090139;28;20054;-71
2021/12/06 09:31:43;;;;;;;91.57;31.88;;;;;;;2.19;100.00;101484.56;5083069;28;20044;-72
2021/12/06 09:34:11;;;;;;;94.63;30.70;;;;;;;2.23;100.00;101510.09;5086848;28;20203;-70
2021/12/06 09:36:39;;;;;;;93.47;31.35;;;;;;;2.23;100.00;101507.47;5090641;27;20533;-71
2021/12/06 09:39:09;;;;;;;101.90;33.92;;;;;;;2.21;100.00;101509.19;5089121;27;20134;-70
2021/12/06 09:41:39;;;;;;;109.50;34.38;;;;;;;2.14;100.00;101499.41;5088050;27;20692;-71
2021/12/06 09:44:09;;;;;;;113.15;36.35;;;;;;;2.21;100.00;101503.94;5093605;27;20086;-72
2021/12/06 09:46:39;;;;;;;103.35;33.22;;;;;;;2.29;100.00;101492.59;5093152;27;20048;-71
2021/12/06 09:49:09;;;;;;;93.95;31.08;;;;;;;2.22;100.00;101502.16;5087829;27;20166;-71
2021/12/06 09:51:40;;;;;;;100.95;31.95;;;;;;;2.14;100.00;101502.06;5096193;27;20078;-71
2021/12/06 09:54:10;;;;;;;85.50;29.23;;;;;;;2.16;100.00;101502.06;5087844;27;20116;-69
2021/12/06 09:56:41;;;;;;;99.55;29.30;;;;;;;2.20;100.00;101502.16;5094539;27;20044;-69
2021/12/06 09:59:12;;;;;;;97.97;32.05;;;;;;;2.07;100.00;101501.97;5090216;27;20052;-69
2021/12/06 10:01:42;;;;;;;88.28;28.55;;;;;;;2.13;100.00;101512.56;5093449;27;20044;-69
2021/12/06 10:04:14;;;;;;;86.90;27.60;;;;;;;2.19;100.00;101496.84;5094515;27;20203;-69
2021/12/06 10:06:43;;;;;;;86.72;27.17;;;;;;;2.12;100.00;101495.03;5090473;27;20452;-69
2021/12/06 10:09:13;;;;;;;85.78;25.35;;;;;;;2.24;100.00;101485.50;5089943;27;20548;-69
2021/12/06 10:11:42;;;;;;;82.90;28.20;;;;;;;2.26;100.00;101477.63;5096536;27;20090;-69
2021/12/06 10:14:11;;;;;;;82.28;26.20;;;;;;;2.19;100.00;101474.03;5087743;27;20043;-70
2021/12/06 10:16:40;;;;;;;84.85;25.58;;;;;;;2.29;100.00;101471.53;5093335;27;20044;-69
2021/12/06 10:19:12;;;;;;;82.95;25.73;;;;;;;2.44;100.00;101461.19;5087473;27;20515;-69
2021/12/06 10:21:43;;;;;;;80.43;26.05;;;;;;;2.43;100.00;101457.66;5090425;27;20160;-68
2021/12/06 10:24:15;;;;;;;70.55;25.27;;;;;;;2.41;100.00;101450.59;5087186;27;20058;-68
2021/12/06 10:26:43;;;;;;;67.32;25.45;;;;;;;2.35;100.00;101445.25;5093280;27;20052;-70
2021/12/06 10:29:19;;;;;;;82.65;23.65;;;;;;;2.45;100.00;101430.44;5086458;27;20142;-70
2021/12/06 10:31:50;;;;;;;77.75;24.92;;;;;;;2.33;100.00;101416.25;5093161;27;20778;-69
2021/12/06 10:34:22;;;;;;;77.88;25.25;;;;;;;2.16;100.00;101418.72;5089125;27;20079;-69
2021/12/06 10:36:53;;;;;;;69.45;23.45;;;;;;;2.21;100.00;101422.28;5096002;27;20126;-69
2021/12/06 10:39:25;;;;;;;67.88;21.70;;;;;;;2.22;100.00;101413.50;5085500;27;20048;-69
2021/12/06 10:41:54;;;;;;;63.42;21.63;;;;;;;2.23;100.00;101407.38;5092479;27;20159;-69
2021/12/06 10:44:24;;;;;;;76.15;22.77;;;;;;;2.27;100.00;101407.44;5086657;27;20148;-69
2021/12/06 10:46:53;;;;;;;78.45;26.92;;;;;;;2.16;100.00;101395.03;5092229;27;20142;-69
2021/12/06 10:49:23;;;;;;;66.97;25.20;;;;;;;2.10;100.00;101396.72;5088416;27;20148;-72
2021/12/06 10:51:52;;;;;;;70.75;24.98;;;;;;;2.09;100.00;101390.53;5090935;27;20134;-72
2021/12/06 10:54:33;;;;;;;71.82;25.00;;;;;;;2.21;100.00;101385.44;5086649;27;20324;-72
2021/12/06 10:57:07;;;;;;;79.43;25.25;;;;;;;2.15;100.00;101387.97;5091494;27;20047;-71
2021/12/06 10:59:39;;;;;;;78.22;27.98;;;;;;;2.07;100.00;101376.47;5090615;27;20133;-72
2021/12/06 11:02:11;;;;;;;77.88;25.05;;;;;;;2.15;100.00;101366.91;5090050;27;20059;-72
2021/12/06 11:04:40;;;;;;;89.57;27.92;;;;;;;2.18;100.00;101373.94;5085981;27;20097;-72
2021/12/06 11:07:10;;;;;;;78.63;29.05;;;;;;;2.13;100.00;101370.38;5090028;27;20158;-70
2021/12/06 11:09:41;;;;;;;79.05;27.70;;;;;;;2.23;100.00;101369.63;5093682;27;20089;-69
2021/12/06 11:12:20;;;;;;;97.05;31.80;;;;;;;2.15;100.00;101361.66;5088882;27;20067;-69
2021/12/06 11:14:48;;;;;;;84.50;30.27;;;;;;;2.26;100.00;101353.84;5089477;27;20499;-69
2021/12/06 11:17:20;;;;;;;93.38;28.23;;;;;;;2.36;100.00;101352.22;5091027;27;20054;-69
2021/12/06 11:19:51;;;;;;;77.80;27.15;;;;;;;2.36;100.00;101342.53;5067865;28;20047;-70
2021/12/06 11:22:21;;;;;;;65.25;25.15;;;;;;;2.32;100.00;101332.84;5088888;27;20475;-70
2021/12/06 11:24:52;;;;;;;82.47;27.13;;;;;;;2.34;100.00;101320.59;5091664;27;20046;-69
2021/12/06 11:27:24;;;;;;;48.80;18.77;;;;;;;2.41;100.00;101317.13;5074961;27;20045;-70
2021/12/06 11:29:57;;;;;;;66.25;23.92;;;;;;;2.51;100.00;101310.19;5099915;27;20097;-69